Time;durP1;ratioP1;P1;durP2;ratioP2;P2;SDS_P1;SDS_P2;PMS_P1;PMS_P2;Temp;Humidity;BMP_temperature;BMP_pressure;BME280_temperature;BME280_humidity;BME280_pressure;Samples;Min_cycle;Max_cycle;Signal;HPM_P1;HPM_P2
2023/11/17 00:04:21;;;;;;;23.50;16.40;;;;;;;6.27;89.06;98005.86;221383;1303;22614;-80
2023/11/17 00:09:24;;;;;;;24.80;15.80;;;;;;;6.30;89.34;97997.77;221555;1298;22597;-80
2023/11/17 00:14:26;;;;;;;25.30;15.90;;;;;;;6.33;89.43;97996.38;221500;1301;22605;-80
2023/11/17 00:19:28;;;;;;;20.80;13.50;;;;;;;6.37;89.45;97995.71;221376;1303;22589;-80
2023/11/17 00:24:31;;;;;;;23.30;16.50;;;;;;;6.37;89.42;97993.61;221384;1298;22589;-80
2023/11/17 00:29:33;;;;;;;24.10;16.10;;;;;;;6.38;89.54;97985.82;221530;1303;22575;-80
2023/11/17 00:34:35;;;;;;;27.50;17.80;;;;;;;6.35;89.49;97976.23;221604;1298;22586;-80
2023/11/17 00:39:38;;;;;;;22.10;16.50;;;;;;;6.34;89.65;97978.19;221482;1301;22570;-79
2023/11/17 00:44:40;;;;;;;22.70;16.50;;;;;;;6.34;89.51;97978.46;221441;1303;22566;-79
2023/11/17 00:49:42;;;;;;;24.40;16.70;;;;;;;6.35;89.69;97973.23;221475;1301;22619;-79
2023/11/17 00:54:47;;;;;;;27.60;17.00;;;;;;;6.35;89.65;97967.27;221429;1303;22571;-80
2023/11/17 00:59:50;;;;;;;23.60;16.10;;;;;;;6.36;89.79;97961.10;221526;1298;22607;-80
2023/11/17 01:04:52;;;;;;;25.10;16.00;;;;;;;6.35;89.71;97958.27;221631;1301;22695;-80
2023/11/17 01:09:55;;;;;;;26.50;19.60;;;;;;;6.36;89.73;97963.69;221483;1303;22701;-80
2023/11/17 01:14:58;;;;;;;29.90;22.10;;;;;;;6.36;89.87;97960.83;221650;1303;22626;-81
2023/11/17 01:20:00;;;;;;;27.40;20.20;;;;;;;6.39;89.91;97955.64;221553;1301;22573;-81
2023/11/17 01:25:03;;;;;;;28.30;20.80;;;;;;;6.40;89.98;97952.66;221428;1303;22578;-79
2023/11/17 01:30:08;;;;;;;27.70;20.80;;;;;;;6.41;90.03;97944.36;221246;1303;22605;-81
2023/11/17 01:35:11;;;;;;;33.50;24.70;;;;;;;6.40;89.96;97939.29;221650;1298;22585;-81
2023/11/17 01:40:15;;;;;;;30.60;23.20;;;;;;;6.40;90.24;97938.04;221630;1301;22594;-81
2023/11/17 01:45:17;;;;;;;30.70;22.80;;;;;;;6.40;90.33;97936.30;221596;1289;24255;-81
2023/11/17 01:50:20;;;;;;;35.00;26.80;;;;;;;6.40;90.45;97935.98;221403;1301;157023;-81
2023/11/17 01:55:24;;;;;;;37.70;25.60;;;;;;;6.39;90.48;97937.75;221705;1301;22571;-81
2023/11/17 02:00:26;;;;;;;35.10;26.20;;;;;;;6.38;90.32;97930.69;221529;1298;25464;-82
2023/11/17 02:05:30;;;;;;;36.10;25.70;;;;;;;6.38;90.37;97931.26;221673;1303;22621;-82
2023/11/17 02:11:10;;;;;;;33.60;25.90;;;;;;;6.36;90.49;97930.07;221680;1303;22628;-80
2023/11/17 02:16:17;;;;;;;36.90;26.70;;;;;;;6.37;90.80;97934.52;221685;1302;24267;-80
2023/11/17 02:21:28;;;;;;;40.40;27.10;;;;;;;6.39;90.73;97928.35;221441;1303;24906;-79
2023/11/17 02:26:48;;;;;;;36.10;26.00;;;;;;;6.40;90.84;97921.73;221414;1301;22714;-80
2023/11/17 02:31:52;;;;;;;;;;;;;;;6.37;90.73;97915.17;221570;1301;22543;-80
2023/11/17 02:36:58;;;;;;;33.60;23.10;;;;;;;6.33;90.63;97916.82;221515;1303;22765;-80
2023/11/17 02:42:10;;;;;;;39.20;26.50;;;;;;;6.32;90.78;97915.52;221621;1300;22575;-81
2023/11/17 02:47:20;;;;;;;33.60;21.20;;;;;;;6.32;90.78;97906.96;221444;1303;22601;-81
2023/11/17 02:52:42;;;;;;;31.90;20.60;;;;;;;6.28;90.60;97901.30;221733;1295;22793;-81
2023/11/17 02:57:46;;;;;;;26.60;18.30;;;;;;;6.25;90.84;97902.02;221569;1303;22615;-81
2023/11/17 03:02:48;;;;;;;25.60;17.50;;;;;;;6.23;90.87;97903.13;221608;1301;22622;-81
2023/11/17 03:07:51;;;;;;;21.60;14.50;;;;;;;6.21;90.86;97908.77;221490;1294;22567;-82
2023/11/17 03:12:55;;;;;;;25.10;15.90;;;;;;;6.19;90.84;97905.18;221546;1303;22609;-82
2023/11/17 03:17:58;;;;;;;17.80;12.90;;;;;;;6.18;90.95;97906.17;221724;1300;22702;-82
2023/11/17 03:23:01;;;;;;;18.60;12.90;;;;;;;6.18;90.69;97907.23;221727;1301;22609;-82
2023/11/17 03:28:04;;;;;;;17.20;12.90;;;;;;;6.15;90.87;97909.32;221590;1303;22571;-82
2023/11/17 03:33:07;;;;;;;22.70;14.60;;;;;;;6.11;90.95;97912.24;221434;1303;22601;-82
2023/11/17 03:38:13;;;;;;;20.50;15.50;;;;;;;6.08;90.95;97913.66;221670;1296;22593;-82
2023/11/17 03:43:18;;;;;;;22.00;15.70;;;;;;;6.06;91.06;97913.76;221448;1303;22638;-82
2023/11/17 03:48:22;;;;;;;22.50;16.50;;;;;;;6.04;91.14;97916.79;221458;1302;23183;-82
2023/11/17 03:53:24;;;;;;;21.60;15.90;;;;;;;6.02;91.15;97917.69;221712;1303;25536;-82
2023/11/17 03:58:27;;;;;;;25.40;16.60;;;;;;;6.00;91.35;97911.98;221752;1301;22582;-82
2023/11/17 04:03:31;;;;;;;25.00;16.10;;;;;;;5.99;91.18;97913.13;221608;1298;22572;-83
2023/11/17 04:08:33;;;;;;;23.10;16.80;;;;;;;5.98;91.33;97911.31;221571;1298;22568;-82
2023/11/17 04:13:39;;;;;;;20.80;15.60;;;;;;;5.98;91.39;97910.69;221575;1295;22705;-82
2023/11/17 04:18:46;;;;;;;24.00;17.10;;;;;;;5.95;91.33;97910.61;221666;1300;22567;-83
2023/11/17 04:23:49;;;;;;;19.90;13.60;;;;;;;5.92;91.39;97909.25;221566;1301;22607;-82
2023/11/17 04:28:51;;;;;;;19.80;14.80;;;;;;;5.90;91.25;97911.30;221449;1303;24302;-82
2023/11/17 04:33:54;;;;;;;19.10;13.20;;;;;;;5.87;91.27;97912.61;221687;1301;22608;-81
2023/11/17 04:38:58;;;;;;;16.80;12.10;;;;;;;5.84;91.34;97911.23;221493;1298;22582;-81
2023/11/17 04:44:00;;;;;;;23.20;13.20;;;;;;;5.82;91.33;97915.46;221658;1303;22589;-81
2023/11/17 04:49:03;;;;;;;13.50;11.40;;;;;;;5.80;91.38;97917.09;221715;1300;23153;-82
2023/11/17 04:54:06;;;;;;;17.40;12.60;;;;;;;5.78;91.44;97912.48;221477;1303;22616;-82
2023/11/17 04:59:17;;;;;;;16.10;12.00;;;;;;;5.77;91.56;97917.83;221572;1303;22584;-82
2023/11/17 05:04:19;;;;;;;17.70;12.60;;;;;;;5.77;91.49;97921.34;221648;1303;25516;-82
2023/11/17 05:09:22;;;;;;;16.70;12.50;;;;;;;5.76;91.54;97922.85;221642;1301;22570;-82
2023/11/17 05:14:24;;;;;;;17.90;12.90;;;;;;;5.75;91.50;97930.82;221574;1301;22566;-83
2023/11/17 05:19:28;;;;;;;19.00;14.40;;;;;;;5.74;91.52;97932.73;221664;1303;22614;-83
2023/11/17 05:24:30;;;;;;;17.80;12.70;;;;;;;5.73;91.46;97932.14;221701;1296;22617;-80
2023/11/17 05:29:33;;;;;;;19.50;14.20;;;;;;;5.71;91.52;97939.98;221653;1298;22641;-81
2023/11/17 05:34:35;;;;;;;20.00;13.70;;;;;;;5.72;91.59;97948.37;221729;1298;22586;-82
2023/11/17 05:39:38;;;;;;;21.70;15.30;;;;;;;5.71;91.66;97952.67;221492;1300;22588;-81
2023/11/17 05:44:42;;;;;;;25.20;19.30;;;;;;;5.71;91.86;97959.64;221664;1301;22579;-81
2023/11/17 05:49:47;;;;;;;22.30;17.20;;;;;;;5.68;91.62;97960.77;221621;1301;22782;-81
2023/11/17 05:54:51;;;;;;;19.50;14.70;;;;;;;5.65;91.72;97968.26;221416;1303;24446;-82
2023/11/17 05:59:57;;;;;;;19.00;13.40;;;;;;;5.63;91.80;97975.58;221699;1301;22626;-81
2023/11/17 06:04:59;;;;;;;17.50;13.10;;;;;;;5.61;91.74;97980.83;221848;1303;24262;-82
2023/11/17 06:10:02;;;;;;;13.00;10.60;;;;;;;5.60;91.88;97986.83;221626;1301;22579;-82
2023/11/17 06:15:05;;;;;;;12.60;10.50;;;;;;;5.60;91.76;97988.98;221462;1303;22746;-82
2023/11/17 06:20:08;;;;;;;10.20;8.20;;;;;;;5.58;91.85;97992.05;221624;1301;22594;-82
2023/11/17 06:25:11;;;;;;;11.90;9.40;;;;;;;5.57;91.67;97997.56;221455;1303;22583;-82
2023/11/17 06:30:14;;;;;;;11.00;9.70;;;;;;;5.55;91.78;98003.29;221601;1295;22607;-82
2023/11/17 06:35:17;;;;;;;11.90;10.10;;;;;;;5.55;91.92;98010.83;221601;1298;22590;-82
2023/11/17 06:40:19;;;;;;;13.40;10.30;;;;;;;5.55;91.65;98013.48;221491;1303;22637;-82
2023/11/17 06:45:22;;;;;;;12.60;11.20;;;;;;;5.56;91.88;98016.39;221621;1301;23375;-82
2023/11/17 06:50:24;;;;;;;12.90;11.10;;;;;;;5.57;91.89;98021.86;221304;1284;22578;-82
2023/11/17 06:55:27;;;;;;;12.40;10.70;;;;;;;5.56;92.01;98032.94;221277;1285;22592;-82
2023/11/17 07:00:30;;;;;;;10.90;9.80;;;;;;;5.56;91.86;98046.69;221252;1281;22556;-83
2023/11/17 07:05:34;;;;;;;9.30;8.00;;;;;;;5.55;91.70;98060.24;221278;1286;24268;-82
2023/11/17 07:10:37;;;;;;;11.30;8.40;;;;;;;5.54;91.73;98065.00;221349;1292;23026;-79
2023/11/17 07:15:40;;;;;;;11.10;9.60;;;;;;;5.53;91.73;98074.90;221097;1299;22581;-78
2023/11/17 07:20:43;;;;;;;11.30;8.90;;;;;;;5.53;91.80;98079.09;221179;1293;22599;-83
2023/11/17 07:25:46;;;;;;;12.20;10.00;;;;;;;5.51;91.83;98089.62;221271;1279;22663;-79
2023/11/17 07:30:49;;;;;;;11.80;9.30;;;;;;;5.55;91.93;98089.75;220443;1291;22611;-79
2023/11/17 07:35:52;;;;;;;9.70;8.60;;;;;;;5.61;91.94;98096.19;220941;1297;22623;-84
2023/11/17 07:40:55;;;;;;;8.20;6.50;;;;;;;5.67;91.81;98100.09;220683;1281;25335;-83
2023/11/17 07:45:58;;;;;;;15.70;7.70;;;;;;;5.74;91.79;98106.16;220859;1291;22574;-80
2023/11/17 07:51:00;;;;;;;9.80;6.90;;;;;;;5.79;91.74;98113.86;220696;1297;22575;-80
2023/11/17 07:56:05;;;;;;;8.10;5.90;;;;;;;5.78;91.39;98117.30;220992;1281;22603;-80
2023/11/17 08:01:08;;;;;;;8.00;7.10;;;;;;;5.78;91.63;98129.69;220790;1303;22638;-80
2023/11/17 08:06:11;;;;;;;8.00;6.60;;;;;;;5.79;91.61;98137.16;220745;1289;22563;-80
2023/11/17 08:11:15;;;;;;;7.40;5.70;;;;;;;5.82;91.56;98136.89;220920;1282;22625;-80
2023/11/17 08:16:18;;;;;;;8.80;5.50;;;;;;;5.85;91.55;98138.52;220777;1280;22594;-81
2023/11/17 08:21:24;;;;;;;8.10;5.50;;;;;;;5.91;91.55;98147.46;220770;1288;22650;-78
2023/11/17 08:26:33;;;;;;;7.20;6.20;;;;;;;5.95;91.35;98150.52;220285;1285;22546;-79
2023/11/17 08:31:35;;;;;;;9.20;7.50;;;;;;;5.97;91.29;98159.27;220453;1282;23092;-79
2023/11/17 08:36:38;;;;;;;10.50;9.00;;;;;;;6.02;91.41;98167.34;221294;1282;22702;-79
2023/11/17 08:41:40;;;;;;;12.70;11.20;;;;;;;6.06;91.49;98174.36;220999;1285;22683;-78
2023/11/17 08:46:44;;;;;;;18.20;13.50;;;;;;;6.12;91.37;98184.20;221160;1296;22576;-78
2023/11/17 08:51:47;;;;;;;18.20;13.90;;;;;;;6.19;91.51;98187.02;220979;1282;24279;-80
2023/11/17 08:56:49;;;;;;;19.10;15.10;;;;;;;6.28;91.31;98194.77;221284;1284;22574;-79
2023/11/17 09:01:53;;;;;;;16.60;14.80;;;;;;;6.34;91.25;98202.75;220838;1298;22580;-79
2023/11/17 09:06:56;;;;;;;22.60;16.10;;;;;;;6.39;90.77;98207.16;220969;1298;24018;-78
2023/11/17 09:11:59;;;;;;;19.90;15.50;;;;;;;6.39;90.74;98213.44;221028;1303;22610;-77
2023/11/17 09:17:06;;;;;;;22.90;17.10;;;;;;;6.32;90.19;98220.21;220969;1296;22617;-80
2023/11/17 09:22:09;;;;;;;26.90;18.80;;;;;;;6.21;90.30;98218.05;220724;1295;22575;-77
2023/11/17 09:27:15;;;;;;;27.90;18.90;;;;;;;6.19;90.41;98213.85;221007;1301;23001;-77
2023/11/17 09:32:17;;;;;;;24.50;18.70;;;;;;;6.17;90.15;98204.25;221164;1295;22742;-77
2023/11/17 09:37:19;;;;;;;29.00;20.80;;;;;;;6.13;90.14;98207.81;221052;1291;23276;-79
2023/11/17 09:42:25;;;;;;;23.90;18.30;;;;;;;6.08;90.01;98211.76;221475;1295;25236;-79
2023/11/17 09:47:31;;;;;;;25.80;20.00;;;;;;;6.04;89.96;98211.91;221162;1292;24457;-76
2023/11/17 09:52:33;;;;;;;22.90;17.40;;;;;;;6.03;90.12;98225.21;221151;1301;22612;-77
2023/11/17 09:57:36;;;;;;;23.20;17.20;;;;;;;6.04;90.30;98220.11;221185;1301;24536;-76
2023/11/17 10:02:42;;;;;;;20.00;15.00;;;;;;;6.02;90.02;98229.88;221406;1301;22740;-78
2023/11/17 10:07:47;;;;;;;18.10;14.50;;;;;;;5.99;89.90;98233.33;221301;1301;22611;-76
2023/11/17 10:12:51;;;;;;;20.70;15.50;;;;;;;5.97;89.80;98242.19;221195;1300;22562;-78
2023/11/17 10:18:05;;;;;;;20.70;14.90;;;;;;;5.94;89.89;98243.74;221020;1285;22582;-77
2023/11/17 10:23:07;;;;;;;22.60;16.40;;;;;;;5.90;89.68;98251.73;220972;1298;22647;-77
2023/11/17 10:28:10;;;;;;;25.70;18.20;;;;;;;5.79;89.68;98250.24;220814;1291;22586;-76
2023/11/17 10:33:23;;;;;;;25.80;18.20;;;;;;;5.68;89.52;98260.28;220950;1292;22706;-76
2023/11/17 10:38:27;;;;;;;21.10;15.50;;;;;;;5.61;89.57;98259.14;221105;1295;24319;-77
2023/11/17 10:43:47;;;;;;;19.30;13.80;;;;;;;5.50;89.59;98265.91;221093;1298;22484;-76
2023/11/17 10:48:50;;;;;;;18.40;12.90;;;;;;;5.38;89.42;98278.58;221191;1288;22658;-78
2023/11/17 10:54:03;;;;;;;18.60;13.30;;;;;;;5.29;89.34;98274.70;221177;1303;26140;-80
2023/11/17 10:59:09;;;;;;;17.30;12.90;;;;;;;5.23;89.52;98286.62;221444;1300;23426;-79
2023/11/17 11:04:27;;;;;;;12.80;9.10;;;;;;;5.18;89.44;98301.93;221111;1291;22645;-77
2023/11/17 11:09:35;;;;;;;11.30;7.90;;;;;;;5.11;88.90;98304.06;220841;1303;24284;-77
2023/11/17 11:14:43;;;;;;;9.90;7.50;;;;;;;5.04;88.63;98309.73;221156;1298;22640;-77
2023/11/17 11:19:47;;;;;;;10.30;8.00;;;;;;;4.97;88.66;98327.76;221788;1301;22773;-77
2023/11/17 11:25:12;;;;;;;7.70;6.30;;;;;;;4.87;88.20;98336.66;221292;1301;22599;-77
2023/11/17 11:30:18;;;;;;;8.20;6.30;;;;;;;4.76;87.75;98343.45;221202;1298;22556;-77
2023/11/17 11:35:21;;;;;;;7.40;5.40;;;;;;;4.63;87.50;98351.61;221296;1298;22589;-76
2023/11/17 11:40:23;;;;;;;6.00;5.30;;;;;;;4.48;87.15;98354.39;221277;1289;22678;-79
2023/11/17 11:45:26;;;;;;;6.50;5.50;;;;;;;4.36;86.99;98361.11;221020;1303;22606;-76
2023/11/17 11:50:37;;;;;;;7.40;5.10;;;;;;;4.24;87.13;98364.39;221471;1303;22579;-77
2023/11/17 11:55:41;;;;;;;8.60;5.50;;;;;;;4.14;86.97;98375.00;222106;1298;24979;-76
2023/11/17 12:00:44;;;;;;;7.60;6.40;;;;;;;4.08;86.88;98386.47;221134;1303;25467;-77
2023/11/17 12:05:53;;;;;;;7.50;6.10;;;;;;;4.01;87.14;98388.56;221389;1288;23019;-77
2023/11/17 12:11:10;;;;;;;7.40;5.40;;;;;;;3.94;86.66;98393.79;221524;1303;22881;-77
2023/11/17 12:16:18;;;;;;;6.30;5.70;;;;;;;3.86;86.83;98401.70;221132;1298;22599;-77
2023/11/17 12:21:24;;;;;;;8.40;7.10;;;;;;;3.82;86.87;98407.90;221223;1298;24614;-77
2023/11/17 12:26:27;;;;;;;10.10;7.50;;;;;;;3.75;86.48;98419.09;220968;1300;22576;-76
2023/11/17 12:31:31;;;;;;;6.90;6.20;;;;;;;3.65;86.03;98432.58;220644;1288;22735;-81
2023/11/17 12:36:36;;;;;;;7.00;5.90;;;;;;;3.55;85.82;98438.89;220793;1284;24249;-75
2023/11/17 12:41:39;;;;;;;6.80;6.10;;;;;;;3.45;86.02;98449.29;220719;1295;23073;-77
2023/11/17 12:46:41;;;;;;;6.60;5.90;;;;;;;3.40;85.82;98455.18;220859;1301;22576;-80
2023/11/17 12:51:45;;;;;;;5.70;5.20;;;;;;;3.35;85.87;98466.98;221257;1298;23216;-81
2023/11/17 12:56:48;;;;;;;6.40;5.60;;;;;;;3.27;85.42;98464.06;220943;1296;24349;-81
2023/11/17 13:01:51;;;;;;;6.70;5.60;;;;;;;3.16;85.34;98472.25;221190;1285;22965;-80
2023/11/17 13:06:53;;;;;;;7.50;5.40;;;;;;;3.03;85.01;98484.02;221132;1283;22637;-78
2023/11/17 13:11:56;;;;;;;6.20;4.50;;;;;;;2.95;84.81;98483.04;222015;1295;22571;-80
2023/11/17 13:17:03;;;;;;;5.30;4.40;;;;;;;2.94;84.73;98477.06;221435;1282;22615;-82
2023/11/17 13:22:06;;;;;;;6.20;4.90;;;;;;;2.93;84.48;98481.52;221446;1295;22542;-81
2023/11/17 13:27:09;;;;;;;6.70;5.30;;;;;;;2.89;84.86;98485.38;220999;1291;22670;-78
2023/11/17 13:32:11;;;;;;;6.70;5.00;;;;;;;2.89;84.92;98484.69;220847;1282;22696;-78
2023/11/17 13:37:16;;;;;;;6.20;5.00;;;;;;;2.90;85.05;98490.52;221169;1285;24244;-78
2023/11/17 13:42:19;;;;;;;4.90;4.40;;;;;;;2.93;85.30;98496.23;221181;1293;22562;-78
2023/11/17 13:47:21;;;;;;;4.90;3.90;;;;;;;2.94;85.12;98497.77;220736;1298;207098;-79
2023/11/17 13:52:24;;;;;;;4.40;3.80;;;;;;;2.94;84.99;98494.27;220750;1285;22835;-80
2023/11/17 13:57:27;;;;;;;4.20;3.80;;;;;;;2.94;85.28;98498.80;220899;1285;22594;-77
2023/11/17 14:02:29;;;;;;;5.40;4.00;;;;;;;2.93;84.79;98503.57;220905;1300;22680;-78
2023/11/17 14:07:31;;;;;;;8.90;4.20;;;;;;;2.95;85.22;98509.33;220959;1301;22642;-79
2023/11/17 14:12:35;;;;;;;4.50;4.00;;;;;;;2.94;84.85;98520.05;220773;1296;23119;-77
2023/11/17 14:17:38;;;;;;;6.40;4.80;;;;;;;2.92;85.09;98530.84;220953;1298;23059;-76
2023/11/17 14:22:45;;;;;;;5.70;4.40;;;;;;;2.93;85.21;98529.68;221140;1301;22570;-76
2023/11/17 14:27:48;;;;;;;6.10;4.70;;;;;;;2.94;85.33;98541.41;221235;1301;24268;-76
2023/11/17 14:32:50;;;;;;;5.20;4.60;;;;;;;2.93;85.21;98542.52;221204;1298;22592;-77
2023/11/17 14:37:53;;;;;;;7.70;5.30;;;;;;;2.95;85.27;98544.63;220956;1282;22590;-76
2023/11/17 14:42:58;;;;;;;6.70;5.40;;;;;;;2.96;85.31;98552.45;220741;1298;23513;-77
2023/11/17 14:48:04;;;;;;;7.60;6.20;;;;;;;2.98;85.48;98558.56;220923;1290;23028;-78
2023/11/17 14:53:08;;;;;;;6.70;5.60;;;;;;;2.99;85.25;98565.76;220704;1296;22604;-77
2023/11/17 14:58:10;;;;;;;7.10;5.90;;;;;;;3.00;85.09;98574.24;220938;1283;22563;-78
2023/11/17 15:03:13;;;;;;;8.80;6.50;;;;;;;2.99;85.26;98577.40;220763;1297;22580;-79
2023/11/17 15:08:16;;;;;;;7.50;6.30;;;;;;;3.00;85.15;98583.58;220656;1301;22611;-77
2023/11/17 15:13:18;;;;;;;8.00;7.10;;;;;;;3.01;85.37;98587.30;220789;1302;22572;-78
2023/11/17 15:18:20;;;;;;;9.90;8.20;;;;;;;3.01;85.54;98588.58;221209;1295;22572;-78
2023/11/17 15:23:22;;;;;;;12.80;10.60;;;;;;;3.01;85.49;98600.55;221074;1303;22597;-78
2023/11/17 15:28:25;;;;;;;14.20;10.70;;;;;;;2.98;85.22;98613.03;221380;1299;22597;-77
2023/11/17 15:33:29;;;;;;;12.80;10.30;;;;;;;2.95;85.19;98621.20;221351;1302;24247;-77
2023/11/17 15:38:32;;;;;;;9.90;8.70;;;;;;;2.94;85.42;98629.05;221331;1302;22589;-76
2023/11/17 15:43:36;;;;;;;9.70;7.70;;;;;;;2.93;84.87;98637.52;221347;1303;23200;-76
2023/11/17 15:48:39;;;;;;;8.20;7.30;;;;;;;2.92;85.04;98645.48;221379;1303;22588;-77
2023/11/17 15:53:41;;;;;;;8.90;7.90;;;;;;;2.89;84.94;98649.52;221476;1301;22593;-77
2023/11/17 15:58:44;;;;;;;9.70;7.80;;;;;;;2.87;85.15;98657.44;221421;1303;22874;-78
2023/11/17 16:03:53;;;;;;;8.20;6.80;;;;;;;2.86;85.03;98664.91;221477;1301;22672;-77
2023/11/17 16:08:56;;;;;;;6.90;5.60;;;;;;;2.85;85.22;98663.80;221437;1301;22590;-77
2023/11/17 16:13:58;;;;;;;7.40;5.70;;;;;;;2.86;85.06;98667.58;221402;1301;22982;-77
2023/11/17 16:19:02;;;;;;;5.90;4.90;;;;;;;2.88;84.72;98679.41;221561;1302;23170;-79
2023/11/17 16:24:05;;;;;;;6.50;5.20;;;;;;;2.87;84.85;98687.98;221361;1303;22625;-77
2023/11/17 16:29:09;;;;;;;5.30;4.80;;;;;;;2.84;84.98;98686.83;221404;1303;22591;-79
2023/11/17 16:34:11;;;;;;;5.20;4.70;;;;;;;2.81;84.74;98688.88;221389;1302;22784;-77
2023/11/17 16:39:18;;;;;;;6.30;5.30;;;;;;;2.80;84.69;98702.75;221474;1303;22683;-78
2023/11/17 16:44:23;;;;;;;6.50;5.30;;;;;;;2.78;84.86;98713.88;221203;1283;25332;-76
2023/11/17 16:49:26;;;;;;;7.40;5.70;;;;;;;2.78;85.18;98718.90;222014;1298;22689;-76
2023/11/17 16:54:31;;;;;;;7.70;6.50;;;;;;;2.79;85.13;98722.27;221457;1302;22713;-76
2023/11/17 16:59:35;;;;;;;9.50;7.30;;;;;;;2.78;85.38;98724.09;221493;1296;22573;-77
2023/11/17 17:04:43;;;;;;;12.30;8.60;;;;;;;2.76;85.63;98719.77;221544;1303;22607;-77
2023/11/17 17:09:45;;;;;;;12.00;9.00;;;;;;;2.73;85.63;98720.90;221406;1299;22578;-77
2023/11/17 17:14:47;;;;;;;14.10;10.20;;;;;;;2.70;85.90;98729.55;221527;1303;22594;-77
2023/11/17 17:19:53;;;;;;;15.00;11.70;;;;;;;2.68;86.04;98732.48;221259;1303;22644;-76
2023/11/17 17:24:56;;;;;;;16.40;12.10;;;;;;;2.68;86.16;98729.71;221417;1302;25394;-78
2023/11/17 17:29:58;;;;;;;16.70;11.40;;;;;;;2.69;86.23;98731.23;221438;1303;22616;-76
2023/11/17 17:35:00;;;;;;;16.90;11.70;;;;;;;2.71;86.32;98733.86;221552;1302;25314;-77
2023/11/17 17:40:08;;;;;;;13.50;10.30;;;;;;;2.70;86.18;98735.13;221421;1303;22677;-77
2023/11/17 17:45:18;;;;;;;12.00;9.40;;;;;;;2.65;86.29;98735.07;221271;1303;22599;-77
2023/11/17 17:50:22;;;;;;;;;;;;;;;2.64;86.18;98740.70;221425;1303;25266;-77
2023/11/17 17:55:27;;;;;;;11.70;10.00;;;;;;;2.67;86.15;98745.00;221390;1303;22565;-77
2023/11/17 18:00:31;;;;;;;12.60;10.40;;;;;;;2.68;86.19;98750.59;221774;1295;22628;-77
2023/11/17 18:05:34;;;;;;;13.40;10.90;;;;;;;2.72;86.09;98750.39;221459;1303;22582;-78
2023/11/17 18:10:37;;;;;;;14.90;11.60;;;;;;;2.76;86.44;98750.40;221197;1303;22631;-77
2023/11/17 18:15:41;;;;;;;17.60;12.60;;;;;;;2.80;86.57;98750.89;221219;1285;23008;-77
2023/11/17 18:20:43;;;;;;;15.10;11.90;;;;;;;2.86;86.58;98751.39;221444;1298;22585;-77
2023/11/17 18:25:47;;;;;;;15.40;11.10;;;;;;;2.89;86.34;98756.30;221422;1303;22582;-77
2023/11/17 18:30:50;;;;;;;14.60;11.20;;;;;;;2.90;86.40;98765.34;221435;1301;23082;-76
2023/11/17 18:35:52;;;;;;;14.50;11.40;;;;;;;2.87;86.66;98769.92;221579;1296;22620;-77
2023/11/17 18:40:55;;;;;;;17.50;12.10;;;;;;;2.85;86.53;98771.30;221425;1301;22575;-77
2023/11/17 18:45:58;;;;;;;16.20;11.80;;;;;;;2.85;86.82;98766.24;221373;1302;23778;-78
2023/11/17 18:51:01;;;;;;;18.50;12.80;;;;;;;2.85;86.81;98766.95;221654;1298;25535;-77
2023/11/17 18:56:05;;;;;;;18.30;12.90;;;;;;;2.84;87.41;98764.44;221499;1298;22578;-76
2023/11/17 19:01:08;;;;;;;16.50;12.00;;;;;;;2.83;86.93;98762.39;221564;1301;22633;-76
2023/11/17 19:06:10;;;;;;;16.70;11.10;;;;;;;2.83;87.21;98768.49;221371;1303;22621;-77
2023/11/17 19:11:16;;;;;;;15.10;10.80;;;;;;;2.84;87.12;98771.92;221532;1303;22594;-76
2023/11/17 19:16:19;;;;;;;16.30;11.60;;;;;;;2.85;87.53;98771.14;221492;1295;22675;-75
2023/11/17 19:21:22;;;;;;;14.70;11.10;;;;;;;2.85;87.62;98771.13;221369;1301;22604;-77
2023/11/17 19:26:25;;;;;;;15.10;11.20;;;;;;;2.85;87.61;98768.17;221272;1301;22619;-77
2023/11/17 19:31:27;;;;;;;16.40;11.80;;;;;;;2.86;87.62;98772.65;221487;1284;22577;-77
2023/11/17 19:36:33;;;;;;;15.90;12.50;;;;;;;2.87;87.83;98771.95;221260;1303;22733;-77
2023/11/17 19:41:38;;;;;;;16.40;11.50;;;;;;;2.88;88.09;98772.77;221526;1298;24442;-77
2023/11/17 19:46:41;;;;;;;14.20;11.30;;;;;;;2.90;87.58;98772.09;221590;1300;22734;-77
2023/11/17 19:51:51;;;;;;;13.80;10.30;;;;;;;2.91;87.90;98774.21;221392;1303;22646;-76
2023/11/17 19:56:53;;;;;;;12.60;10.10;;;;;;;2.93;88.13;98774.24;221360;1301;23041;-77
2023/11/17 20:01:55;;;;;;;13.70;11.20;;;;;;;2.94;87.66;98776.58;221304;1297;23099;-77
2023/11/17 20:07:00;;;;;;;9.70;8.30;;;;;;;2.96;87.84;98773.41;221463;1299;25528;-77
2023/11/17 20:12:04;;;;;;;14.60;10.80;;;;;;;2.98;88.09;98779.34;221422;1301;22717;-77
2023/11/17 20:17:06;;;;;;;13.60;10.60;;;;;;;3.00;88.31;98782.09;221185;1303;25488;-75
2023/11/17 20:22:10;;;;;;;12.90;9.50;;;;;;;3.02;88.19;98787.52;221362;1303;22575;-77
2023/11/17 20:27:16;;;;;;;14.40;11.20;;;;;;;3.02;88.18;98785.52;221631;1303;22588;-77
2023/11/17 20:32:19;;;;;;;15.50;10.50;;;;;;;3.03;87.96;98791.35;221194;1300;23038;-76
2023/11/17 20:37:22;;;;;;;15.30;11.20;;;;;;;3.05;88.28;98794.55;220936;1297;22582;-76
2023/11/17 20:42:26;;;;;;;16.70;11.40;;;;;;;3.06;88.41;98792.54;221007;1301;22590;-77
2023/11/17 20:47:31;;;;;;;14.80;11.10;;;;;;;3.06;88.12;98791.33;221092;1301;22652;-78
2023/11/17 20:52:35;;;;;;;14.30;10.80;;;;;;;3.07;88.33;98797.78;221023;1303;22627;-77
2023/11/17 20:57:45;;;;;;;15.60;12.20;;;;;;;3.10;88.25;98798.64;221073;1303;23116;-77
2023/11/17 21:02:54;;;;;;;17.10;11.20;;;;;;;3.11;88.11;98801.59;221091;1301;24321;-76
2023/11/17 21:07:57;;;;;;;15.50;11.80;;;;;;;3.13;88.38;98805.45;221186;1298;22614;-77
2023/11/17 21:13:03;;;;;;;14.90;11.30;;;;;;;3.17;87.97;98806.63;221304;1298;22619;-78
2023/11/17 21:18:07;;;;;;;14.90;11.50;;;;;;;3.20;88.16;98809.33;221129;1301;22678;-78
2023/11/17 21:23:10;;;;;;;13.80;10.40;;;;;;;3.24;88.47;98815.09;221359;1302;22580;-77
2023/11/17 21:28:12;;;;;;;12.50;9.20;;;;;;;3.25;88.02;98824.24;221361;1301;22574;-77
2023/11/17 21:33:16;;;;;;;14.20;10.90;;;;;;;3.26;88.10;98828.60;221387;1301;22589;-76
2023/11/17 21:38:18;;;;;;;13.80;9.40;;;;;;;3.28;87.97;98834.85;221445;1301;22579;-76
2023/11/17 21:43:25;;;;;;;8.70;7.20;;;;;;;3.28;87.90;98836.45;221306;1288;23823;-76
2023/11/17 21:48:31;;;;;;;8.80;7.30;;;;;;;3.23;87.73;98839.69;221359;1294;22610;-77
2023/11/17 21:53:36;;;;;;;7.60;6.50;;;;;;;3.18;87.84;98847.23;221404;1303;22696;-77
2023/11/17 21:58:39;;;;;;;10.10;7.30;;;;;;;3.17;87.73;98849.40;221183;1303;22620;-77
2023/11/17 22:03:43;;;;;;;8.80;7.30;;;;;;;3.17;87.73;98855.85;221167;1302;22575;-77
2023/11/17 22:08:50;;;;;;;8.00;7.00;;;;;;;3.17;87.73;98857.27;221296;1303;23073;-77
2023/11/17 22:13:52;;;;;;;10.00;7.70;;;;;;;3.16;87.97;98861.49;221327;1301;22704;-77
2023/11/17 22:18:54;;;;;;;9.90;7.50;;;;;;;3.16;88.10;98862.24;221346;1301;22645;-77
2023/11/17 22:23:57;;;;;;;10.60;8.60;;;;;;;3.15;87.97;98865.11;221325;1288;23948;-76
2023/11/17 22:29:06;;;;;;;9.80;8.60;;;;;;;3.14;88.10;98867.23;221209;1303;22584;-78
2023/11/17 22:34:11;;;;;;;13.20;9.30;;;;;;;3.15;88.16;98871.01;221306;1297;24244;-77
2023/11/17 22:39:13;;;;;;;14.70;10.20;;;;;;;3.16;88.06;98873.67;221130;1301;22578;-76
2023/11/17 22:44:15;;;;;;;11.60;9.00;;;;;;;3.19;88.43;98878.33;221317;1303;23518;-75
2023/11/17 22:49:17;;;;;;;13.70;9.90;;;;;;;3.22;88.37;98878.63;220994;1303;22605;-77
2023/11/17 22:54:20;;;;;;;14.10;10.70;;;;;;;3.24;88.04;98878.66;221424;1301;22603;-77
2023/11/17 22:59:22;;;;;;;14.80;11.30;;;;;;;3.24;88.27;98879.11;221515;1301;22586;-76
2023/11/17 23:04:28;;;;;;;13.20;10.70;;;;;;;3.29;88.18;98882.11;221482;1301;25580;-77
2023/11/17 23:09:32;;;;;;;13.50;9.80;;;;;;;3.33;88.06;98882.29;221460;1301;22618;-76
2023/11/17 23:14:40;;;;;;;16.00;10.60;;;;;;;3.35;88.00;98882.08;221503;1298;22617;-78
2023/11/17 23:19:46;;;;;;;15.70;11.00;;;;;;;3.37;88.07;98879.32;221194;1303;22589;-77
2023/11/17 23:24:48;;;;;;;13.70;10.60;;;;;;;3.40;88.11;98880.64;221379;1301;23830;-77
2023/11/17 23:29:50;;;;;;;11.60;9.30;;;;;;;3.41;88.11;98884.54;221150;1303;22635;-77
2023/11/17 23:34:52;;;;;;;12.50;9.40;;;;;;;3.42;88.20;98886.14;221133;1297;23146;-76